Time;durP1;ratioP1;P1;durP2;ratioP2;P2;SDS_P1;SDS_P2;PMS_P1;PMS_P2;Temp;Humidity;BMP_temperature;BMP_pressure;BME280_temperature;BME280_humidity;BME280_pressure;Samples;Min_cycle;Max_cycle;Signal;HPM_P1;HPM_P2
2022/06/30 00:01:00;;;;;;;6.60;4.30;;;;;;;18.19;100.00;101235.09;10283378;28;20047;-66
2022/06/30 00:06:00;;;;;;;4.88;4.38;;;;;;;18.15;100.00;101229.28;10262420;28;20548;-66
2022/06/30 00:17:30;;;;;;;6.75;4.47;;;;;;;18.32;100.00;101214.03;10214042;29;20123;-87
2022/06/30 00:22:31;;;;;;;7.15;3.70;;;;;;;18.51;100.00;101219.66;10178891;29;20115;-87
2022/06/30 00:27:32;;;;;;;4.60;3.88;;;;;;;18.29;100.00;101175.59;10168523;29;20064;-87
2022/06/30 00:32:32;;;;;;;4.40;3.72;;;;;;;18.52;100.00;101218.50;10123361;29;20032;-87
2022/06/30 00:37:33;;;;;;;5.82;3.97;;;;;;;18.44;100.00;101208.88;10141482;29;20048;-88
2022/06/30 00:42:33;;;;;;;5.00;4.10;;;;;;;18.46;100.00;101202.97;10178311;29;20043;-84
2022/06/30 00:47:34;;;;;;;10.80;4.20;;;;;;;18.53;100.00;101221.00;10177889;29;20039;-87
2022/06/30 00:52:35;;;;;;;6.15;4.90;;;;;;;18.37;100.00;101213.97;10188640;29;20166;-87
2022/06/30 00:57:36;;;;;;;7.05;4.60;;;;;;;18.22;100.00;101226.13;10122677;29;20104;-87
2022/06/30 01:02:36;;;;;;;4.90;4.40;;;;;;;18.23;100.00;101227.81;10123598;29;20028;-87
2022/06/30 01:07:37;;;;;;;8.07;5.53;;;;;;;18.20;100.00;101208.06;10121238;29;20055;-87
2022/06/30 01:12:44;;;;;;;5.28;4.35;;;;;;;18.30;100.00;101211.53;10123640;29;20055;-87
2022/06/30 01:17:45;;;;;;;8.20;4.75;;;;;;;18.38;100.00;101209.25;10176728;29;20040;-87
2022/06/30 01:22:46;;;;;;;5.68;5.07;;;;;;;18.31;100.00;101193.72;10162696;29;20047;-87
2022/06/30 01:27:46;;;;;;;8.77;4.90;;;;;;;18.47;100.00;101219.41;10170644;29;20052;-87
2022/06/30 01:32:47;;;;;;;6.22;4.68;;;;;;;18.40;100.00;101201.38;10124582;29;20072;-86
2022/06/30 01:37:54;;;;;;;6.70;4.00;;;;;;;18.45;100.00;101206.91;10121360;29;20126;-87
2022/06/30 01:42:55;;;;;;;4.38;3.97;;;;;;;18.39;100.00;101199.72;10187765;29;20044;-87
2022/06/30 01:47:55;;;;;;;7.07;4.90;;;;;;;18.30;100.00;101180.06;10174428;29;20060;-86
2022/06/30 01:52:56;;;;;;;8.02;5.85;;;;;;;18.22;100.00;101177.94;10163642;29;20050;-88
2022/06/30 01:57:57;;;;;;;7.85;5.47;;;;;;;18.14;100.00;101180.25;10159841;29;20058;-87
2022/06/30 02:02:59;;;;;;;6.72;5.35;;;;;;;18.03;100.00;101175.13;10158598;29;20078;-88
2022/06/30 02:07:59;;;;;;;5.65;4.78;;;;;;;17.93;100.00;101174.09;10127018;29;20535;-87
2022/06/30 02:13:00;;;;;;;10.70;6.93;;;;;;;17.75;100.00;101170.09;10118983;29;20524;-82
2022/06/30 02:18:02;;;;;;;8.43;5.20;;;;;;;17.74;100.00;101178.75;10135882;29;20040;-87
2022/06/30 02:23:03;;;;;;;7.63;5.13;;;;;;;17.59;100.00;101178.91;10123737;29;20041;-87
2022/06/30 02:28:05;;;;;;;7.35;5.70;;;;;;;17.51;100.00;101177.63;10133341;29;20040;-88
2022/06/30 02:33:05;;;;;;;5.47;4.90;;;;;;;17.45;100.00;101165.69;10133577;29;20055;-87
2022/06/30 02:38:10;;;;;;;9.00;5.03;;;;;;;17.43;100.00;101184.63;10169535;29;20076;-86
2022/06/30 02:43:10;;;;;;;9.00;5.53;;;;;;;17.37;100.00;101180.25;10159597;29;20055;-86
2022/06/30 02:48:11;;;;;;;6.30;4.57;;;;;;;17.24;100.00;101164.22;10187877;29;20043;-87
2022/06/30 02:53:12;;;;;;;11.23;5.18;;;;;;;17.38;100.00;101181.88;10203667;29;20445;-87
2022/06/30 02:58:12;;;;;;;7.40;5.40;;;;;;;17.42;100.00;101171.81;10146596;29;20075;-87
2022/06/30 03:03:13;;;;;;;6.57;5.50;;;;;;;17.39;100.00;101161.31;10140292;29;20036;-85
2022/06/30 03:08:13;;;;;;;7.95;4.60;;;;;;;17.38;100.00;101170.75;10172379;29;21075;-87
2022/06/30 03:13:14;;;;;;;6.80;4.47;;;;;;;17.22;100.00;101156.19;10172779;29;20046;-86
2022/06/30 03:18:14;;;;;;;6.18;4.57;;;;;;;17.18;100.00;101163.44;10148492;29;20055;-86
2022/06/30 03:23:15;;;;;;;6.13;4.90;;;;;;;17.09;100.00;101166.00;10137412;29;20036;-87
2022/06/30 03:28:16;;;;;;;9.45;6.20;;;;;;;17.08;100.00;101167.13;10169803;29;20099;-87
2022/06/30 03:33:17;;;;;;;8.27;6.75;;;;;;;16.76;100.00;101117.56;10186546;29;20036;-87
2022/06/30 03:38:18;;;;;;;7.40;5.90;;;;;;;16.97;100.00;101159.16;10145314;29;20043;-87
2022/06/30 03:43:18;;;;;;;10.52;5.78;;;;;;;16.84;100.00;101146.75;10150909;29;20051;-81
2022/06/30 03:48:19;;;;;;;6.43;5.60;;;;;;;16.77;100.00;101149.84;10177597;29;20447;-86
2022/06/30 03:53:19;;;;;;;9.88;5.60;;;;;;;16.87;100.00;101169.25;10177422;29;20046;-87
2022/06/30 03:58:20;;;;;;;5.82;4.82;;;;;;;16.77;100.00;101149.00;10163559;29;20040;-86
2022/06/30 04:03:22;;;;;;;6.10;4.70;;;;;;;16.82;100.00;101155.38;10193518;29;20039;-87
2022/06/30 04:08:22;;;;;;;6.38;4.93;;;;;;;16.76;100.00;101131.47;10155287;29;20040;-86
2022/06/30 04:13:23;;;;;;;10.10;4.60;;;;;;;16.75;100.00;101136.22;10122590;29;20046;-87
2022/06/30 04:18:23;;;;;;;6.30;4.28;;;;;;;16.87;100.00;101148.97;10153019;29;20043;-86
2022/06/30 04:23:24;;;;;;;6.07;4.05;;;;;;;16.90;100.00;101145.59;10138069;29;20046;-86
2022/06/30 04:28:24;;;;;;;5.65;3.90;;;;;;;17.01;100.00;101157.47;10137739;29;20108;-84
2022/06/30 04:33:25;;;;;;;9.38;4.43;;;;;;;17.00;100.00;101136.34;10136803;29;20103;-86
2022/06/30 04:38:25;;;;;;;6.25;5.20;;;;;;;17.00;100.00;101126.03;10168814;28;20037;-86
2022/06/30 04:43:26;;;;;;;7.57;6.25;;;;;;;17.05;100.00;101145.47;10121581;29;20048;-86
2022/06/30 04:48:26;;;;;;;9.35;6.40;;;;;;;17.03;100.00;101124.63;10137074;29;20472;-87
2022/06/30 04:53:27;;;;;;;7.75;5.10;;;;;;;17.10;100.00;101125.13;10121881;29;20044;-86
2022/06/30 04:58:28;;;;;;;7.15;4.57;;;;;;;17.13;100.00;101124.53;10166826;29;20040;-86
2022/06/30 05:03:29;;;;;;;8.05;5.65;;;;;;;17.11;100.00;101110.91;10129263;29;20047;-87
2022/06/30 05:08:30;;;;;;;7.88;6.10;;;;;;;17.33;100.00;101123.50;10193123;29;20043;-85
2022/06/30 05:13:31;;;;;;;6.38;4.80;;;;;;;17.28;100.00;101076.25;10175346;29;20047;-87
2022/06/30 05:18:31;;;;;;;6.70;4.93;;;;;;;17.42;100.00;101077.19;10190631;29;20107;-87
2022/06/30 05:23:32;;;;;;;5.38;4.72;;;;;;;17.80;100.00;101116.31;10159425;29;20027;-85
2022/06/30 05:28:33;;;;;;;21.25;18.05;;;;;;;17.85;100.00;101095.94;10170373;29;20048;-87
2022/06/30 05:33:33;;;;;;;4.97;3.47;;;;;;;18.15;100.00;101105.88;10120908;29;20040;-87
2022/06/30 05:38:34;;;;;;;4.55;3.65;;;;;;;18.25;100.00;101108.50;10118334;29;20036;-87
2022/06/30 05:43:34;;;;;;;3.80;3.10;;;;;;;18.37;100.00;101093.28;10136901;29;20523;-87
2022/06/30 05:48:35;;;;;;;4.78;3.38;;;;;;;18.75;100.00;101097.69;10150304;29;20071;-86
2022/06/30 05:53:35;;;;;;;5.38;3.00;;;;;;;19.08;100.00;101100.53;10157414;29;20043;-87
2022/06/30 05:58:36;;;;;;;4.30;3.40;;;;;;;19.20;100.00;101097.22;10158474;29;20051;-86
2022/06/30 06:03:36;;;;;;;5.88;3.47;;;;;;;19.41;100.00;101094.03;10171599;29;20051;-87
2022/06/30 06:08:37;;;;;;;6.50;3.40;;;;;;;19.64;100.00;101078.25;10173965;28;20039;-86
2022/06/30 06:13:38;;;;;;;6.35;3.10;;;;;;;20.00;100.00;101075.53;10194022;29;20036;-87
2022/06/30 06:18:39;;;;;;;3.53;3.13;;;;;;;20.52;100.00;101097.56;10165269;29;20103;-86
2022/06/30 06:23:39;;;;;;;5.50;3.13;;;;;;;20.98;100.00;101099.28;10146330;29;20040;-87
2022/06/30 06:34:00;;;;;;;4.47;3.25;;;;;;;21.73;100.00;101086.31;10188505;29;20047;-88
2022/06/30 06:39:00;;;;;;;8.82;4.20;;;;;;;21.93;100.00;101084.03;10166695;29;20482;-91
2022/06/30 06:44:01;;;;;;;5.88;3.00;;;;;;;22.12;100.00;101100.59;10168695;29;20264;-90
2022/06/30 06:49:03;;;;;;;6.97;3.38;;;;;;;22.46;100.00;101101.78;10154152;29;20043;-90
2022/06/30 06:54:03;;;;;;;6.20;3.95;;;;;;;22.68;100.00;101081.16;10168623;29;20040;-89
2022/06/30 06:59:04;;;;;;;5.57;4.20;;;;;;;22.79;100.00;101078.84;10169986;29;20099;-89
2022/06/30 07:04:05;;;;;;;7.30;4.32;;;;;;;23.07;100.00;101088.56;10145779;29;20044;-90
2022/06/30 07:09:05;;;;;;;5.68;3.60;;;;;;;23.04;100.00;101080.78;10177889;29;20070;-91
2022/06/30 07:14:06;;;;;;;9.10;3.83;;;;;;;23.37;100.00;101091.44;10166287;29;20036;-91
2022/06/30 07:19:07;;;;;;;4.93;4.05;;;;;;;23.61;100.00;101092.84;10168989;29;20046;-90
2022/06/30 07:24:07;;;;;;;8.43;4.00;;;;;;;23.84;100.00;101077.38;10169356;29;20036;-88
2022/06/30 07:29:08;;;;;;;6.85;3.72;;;;;;;24.47;100.00;101099.91;10185071;29;20050;-82
2022/06/30 07:34:08;;;;;;;7.70;4.05;;;;;;;24.67;100.00;101103.91;10170950;29;20107;-89
2022/06/30 07:39:09;;;;;;;9.52;4.05;;;;;;;24.86;100.00;101094.13;10186466;29;20036;-87
2022/06/30 07:44:09;;;;;;;7.47;5.13;;;;;;;24.90;97.31;101112.00;10168116;29;20040;-89
2022/06/30 07:49:10;;;;;;;6.05;5.38;;;;;;;24.49;100.00;101120.13;10168743;29;20039;-90
2022/06/30 07:54:10;;;;;;;6.50;4.82;;;;;;;24.66;100.00;101116.38;10132908;29;20408;-90
2022/06/30 07:59:11;;;;;;;6.90;5.72;;;;;;;24.02;100.00;101105.38;10147172;29;20055;-91
2022/06/30 08:04:12;;;;;;;8.63;4.82;;;;;;;24.14;100.00;101122.34;10145382;29;20036;-89
2022/06/30 08:09:12;;;;;;;7.38;5.45;;;;;;;24.58;100.00;101114.44;10130867;29;20067;-91
2022/06/30 08:14:13;;;;;;;7.50;4.82;;;;;;;24.96;100.00;101110.59;10148766;29;21021;-91
2022/06/30 08:19:14;;;;;;;7.63;5.72;;;;;;;25.36;100.00;101102.41;10160398;29;20043;-90
2022/06/30 08:24:14;;;;;;;7.55;6.13;;;;;;;25.71;100.00;101095.50;10152706;29;20095;-90
2022/06/30 08:29:15;;;;;;;6.97;5.63;;;;;;;25.91;99.74;101110.69;10168070;29;20047;-90
2022/06/30 08:34:15;;;;;;;8.45;5.90;;;;;;;26.07;100.00;101113.63;10160691;29;20046;-90
2022/06/30 08:44:36;;;;;;;8.55;6.13;;;;;;;26.30;100.00;101083.72;10207376;29;20058;-93
2022/06/30 08:49:36;;;;;;;7.15;5.97;;;;;;;26.50;97.61;101078.22;10176127;29;20047;-91
2022/06/30 08:54:38;;;;;;;9.50;5.70;;;;;;;26.68;98.51;101076.78;10158547;29;20047;-91
2022/06/30 08:59:39;;;;;;;9.63;6.63;;;;;;;26.94;97.55;101095.28;10180432;29;20035;-96
2022/06/30 09:04:39;;;;;;;7.80;6.88;;;;;;;27.06;95.70;101098.03;10153371;29;20480;-96
2022/06/30 09:09:40;;;;;;;9.88;6.45;;;;;;;27.09;94.64;101080.34;10163039;29;20044;-96
2022/06/30 09:14:47;;;;;;;7.05;6.32;;;;;;;27.11;92.10;101063.03;10182308;29;20044;-93
2022/06/30 09:20:04;;;;;;;7.97;6.30;;;;;;;27.36;93.43;101069.38;10188688;28;20062;-96
2022/06/30 09:25:15;;;;;;;9.25;6.93;;;;;;;27.44;90.59;101064.72;10194602;29;20095;-96
2022/06/30 09:30:19;;;;;;;10.73;6.13;;;;;;;27.46;94.75;101079.31;10196236;29;20070;-96
2022/06/30 09:35:21;;;;;;;9.90;7.10;;;;;;;27.74;92.79;101091.34;10153142;29;20484;-96
2022/06/30 09:40:27;;;;;;;8.20;7.40;;;;;;;27.71;90.80;101065.81;10147643;29;20036;-96
2022/06/30 09:45:42;;;;;;;8.00;6.53;;;;;;;27.96;90.40;101078.56;10153988;29;20040;-96
2022/06/30 09:50:42;;;;;;;7.35;6.65;;;;;;;28.13;89.86;101094.34;10168475;29;20108;-96
2022/06/30 09:55:44;;;;;;;11.02;6.90;;;;;;;28.31;87.29;101079.75;10122863;29;20055;-95
2022/06/30 10:00:49;;;;;;;8.73;6.32;;;;;;;28.52;87.89;101070.91;10171466;28;20044;-93
2022/06/30 10:05:51;;;;;;;8.60;6.68;;;;;;;28.86;82.87;101062.72;10187621;29;20062;-91
2022/06/30 10:10:51;;;;;;;7.82;7.03;;;;;;;28.86;82.01;101065.53;10171487;28;20051;-91
2022/06/30 10:15:56;;;;;;;7.78;6.97;;;;;;;28.80;81.34;101061.38;10156974;29;20040;-91
2022/06/30 10:20:58;;;;;;;10.27;6.45;;;;;;;29.01;84.68;101055.28;10158172;29;20062;-90
2022/06/30 10:25:58;;;;;;;7.72;7.03;;;;;;;29.35;81.03;101056.31;10188657;29;20047;-93
2022/06/30 10:31:22;;;;;;;8.77;6.47;;;;;;;29.51;79.34;101047.69;10157781;29;20158;-94
2022/06/30 10:36:29;;;;;;;6.60;5.90;;;;;;;29.66;79.04;101066.56;10137254;29;20087;-96
2022/06/30 10:41:29;;;;;;;8.88;6.93;;;;;;;29.52;76.89;101050.16;10158982;29;20482;-94
2022/06/30 10:46:31;;;;;;;9.68;6.35;;;;;;;29.77;77.53;101049.75;10150756;28;20036;-94
2022/06/30 10:51:31;;;;;;;6.97;6.28;;;;;;;29.97;77.62;101039.94;10156902;29;20046;-92
2022/06/30 10:56:53;;;;;;;6.63;5.97;;;;;;;29.82;72.98;101028.75;10172244;29;20036;-94
2022/06/30 11:02:12;;;;;;;5.70;5.15;;;;;;;29.82;72.38;101017.38;10185984;28;20419;-94
2022/06/30 11:07:13;;;;;;;5.78;5.18;;;;;;;30.16;73.95;101023.97;10202069;29;20104;-94
2022/06/30 11:12:18;;;;;;;6.70;5.50;;;;;;;30.69;70.40;101009.59;10185814;29;20043;-90
2022/06/30 11:17:20;;;;;;;7.10;5.00;;;;;;;31.07;70.40;101013.28;10167108;28;20040;-93
2022/06/30 11:22:21;;;;;;;6.57;5.57;;;;;;;31.29;69.38;100990.69;10172143;29;20071;-93
2022/06/30 11:27:23;;;;;;;6.15;5.55;;;;;;;31.59;68.23;101001.94;10173154;29;20050;-94
2022/06/30 11:32:23;;;;;;;7.05;5.40;;;;;;;31.79;68.01;100999.59;10151612;29;20071;-94
2022/06/30 11:37:25;;;;;;;8.93;4.82;;;;;;;31.88;68.35;100988.69;10172208;29;20047;-96
2022/06/30 11:42:26;;;;;;;5.60;5.03;;;;;;;31.90;66.49;100966.34;10170619;29;20091;-95
2022/06/30 11:47:28;;;;;;;6.18;5.45;;;;;;;32.02;64.30;100964.38;10141866;29;20048;-95
2022/06/30 11:52:29;;;;;;;6.15;5.53;;;;;;;31.52;65.07;100970.56;10157165;29;20046;-93
2022/06/30 11:57:38;;;;;;;6.60;5.00;;;;;;;31.19;66.25;100969.47;10198508;28;20055;-90
2022/06/30 12:02:40;;;;;;;5.60;5.10;;;;;;;32.41;64.34;100963.72;10147726;29;20044;-94
2022/06/30 12:07:41;;;;;;;8.55;4.53;;;;;;;32.69;59.13;100937.34;10124417;29;20055;-93
2022/06/30 12:12:42;;;;;;;7.05;4.82;;;;;;;31.83;61.92;100957.75;10138076;29;20046;-91
2022/06/30 12:17:47;;;;;;;7.15;4.25;;;;;;;32.34;58.66;100939.69;10147851;29;20063;-93
2022/06/30 12:22:51;;;;;;;4.07;3.67;;;;;;;32.55;59.86;100961.75;10172093;29;20035;-93
2022/06/30 12:27:53;;;;;;;7.68;4.85;;;;;;;33.17;58.92;100928.41;10174940;29;20050;-92
2022/06/30 12:32:58;;;;;;;5.60;4.57;;;;;;;34.28;56.14;100930.97;10159237;29;20412;-94
2022/06/30 12:38:18;;;;;;;6.20;4.70;;;;;;;34.93;55.92;100939.94;10177585;29;20040;-92
2022/06/30 12:43:19;;;;;;;5.00;4.50;;;;;;;35.33;55.32;100928.19;10190699;29;20225;-93
2022/06/30 12:48:38;;;;;;;6.13;5.05;;;;;;;35.04;54.55;100939.88;10160385;29;20047;-92
2022/06/30 12:53:40;;;;;;;5.40;4.90;;;;;;;35.29;54.47;100947.44;10176956;29;20039;-89
2022/06/30 12:58:47;;;;;;;9.40;5.57;;;;;;;34.99;51.39;100923.16;10124327;29;20449;-94
2022/06/30 13:04:02;;;;;;;7.63;5.32;;;;;;;33.31;55.18;100934.09;10169651;29;20044;-96
2022/06/30 13:09:07;;;;;;;6.90;6.20;;;;;;;32.28;60.95;100951.88;10142085;29;20056;-92
2022/06/30 13:14:08;;;;;;;6.65;6.05;;;;;;;32.01;60.80;100955.03;10123364;29;20055;-93
2022/06/30 13:19:08;;;;;;;8.05;5.68;;;;;;;33.10;58.27;100951.25;10142527;29;20127;-93
2022/06/30 13:24:10;;;;;;;7.25;6.55;;;;;;;34.48;57.98;100950.44;10172241;29;20436;-93
2022/06/30 13:29:11;;;;;;;5.47;4.97;;;;;;;34.99;56.14;100934.59;10160173;29;20055;-91
2022/06/30 13:34:11;;;;;;;10.25;7.95;;;;;;;34.99;55.23;100934.59;10157187;29;20059;-92
2022/06/30 13:39:12;;;;;;;9.07;6.53;;;;;;;34.42;57.08;100920.69;10158971;29;20040;-94
2022/06/30 13:44:12;;;;;;;7.03;6.32;;;;;;;33.53;59.45;100937.75;10165055;29;20488;-91
2022/06/30 13:49:13;;;;;;;8.93;6.75;;;;;;;33.70;58.52;100941.81;10192052;29;20043;-93
2022/06/30 13:54:13;;;;;;;6.93;5.50;;;;;;;33.37;60.75;100968.75;10184839;29;20040;-95
2022/06/30 13:59:14;;;;;;;7.60;5.70;;;;;;;33.86;59.03;100969.91;10152231;29;20075;-83
2022/06/30 14:04:16;;;;;;;11.38;5.68;;;;;;;33.78;57.38;100919.75;10168373;29;20047;-96
2022/06/30 14:09:17;;;;;;;5.85;5.25;;;;;;;33.76;59.39;100965.03;10164330;28;20044;-96
2022/06/30 14:14:18;;;;;;;10.02;5.90;;;;;;;33.35;59.68;100966.31;10185477;29;20052;-94
2022/06/30 14:19:18;;;;;;;7.47;5.80;;;;;;;32.88;59.83;100941.84;10157490;29;20046;-96
2022/06/30 14:24:18;;;;;;;10.50;6.32;;;;;;;32.60;61.72;100937.75;10164285;29;20036;-95
2022/06/30 14:29:19;;;;;;;7.15;6.45;;;;;;;32.94;60.19;100931.66;10149157;29;20051;-93
2022/06/30 14:34:19;;;;;;;5.93;5.35;;;;;;;32.50;62.42;100927.13;10134145;29;20103;-93
2022/06/30 14:39:20;;;;;;;7.15;5.22;;;;;;;33.08;61.24;100982.22;10118369;29;20043;-95
2022/06/30 14:44:21;;;;;;;8.45;5.63;;;;;;;33.06;66.23;101016.81;10150385;29;20056;-90
2022/06/30 14:49:21;;;;;;;4.78;4.10;;;;;;;31.93;70.40;101013.13;10118901;29;20051;-86
2022/06/30 14:54:22;;;;;;;16.20;7.03;;;;;;;29.70;80.43;101061.78;10150064;29;20032;-96
2022/06/30 14:59:24;;;;;;;32.45;13.45;;;;;;;27.20;100.00;101085.47;10142491;29;20040;-96
2022/06/30 15:04:24;;;;;;;41.85;12.32;;;;;;;24.74;100.00;101073.22;10164586;29;20036;-94
2022/06/30 15:09:27;;;;;;;16.50;9.60;;;;;;;23.37;100.00;101057.72;10157574;29;20396;-96
2022/06/30 15:14:28;;;;;;;30.35;13.23;;;;;;;22.79;100.00;101039.53;10175255;29;20043;-95
2022/06/30 15:19:28;;;;;;;17.80;12.20;;;;;;;22.26;100.00;101014.38;10168499;29;20044;-96
2022/06/30 15:24:29;;;;;;;14.40;11.98;;;;;;;22.17;100.00;100999.47;10180335;29;20059;-96
2022/06/30 15:29:29;;;;;;;14.98;12.52;;;;;;;22.52;100.00;100999.47;10244039;23;20053;-68
2022/06/30 15:34:30;;;;;;;17.50;14.63;;;;;;;23.06;100.00;100971.78;10365780;28;20034;-68
2022/06/30 15:39:31;;;;;;;18.85;12.98;;;;;;;24.72;100.00;100959.28;10323949;28;20035;-67
2022/06/30 15:44:31;;;;;;;13.05;11.75;;;;;;;25.98;100.00;100944.47;10333737;28;20038;-67
2022/06/30 15:49:32;;;;;;;15.60;11.15;;;;;;;27.32;100.00;100938.44;10333764;28;20038;-67
2022/06/30 15:54:32;;;;;;;13.63;9.40;;;;;;;28.07;100.00;100925.16;10335743;28;20038;-66
2022/06/30 15:59:33;;;;;;;9.40;8.35;;;;;;;28.77;100.00;100918.44;10306428;28;20042;-69
2022/06/30 16:04:34;;;;;;;14.57;9.38;;;;;;;29.24;100.00;100911.53;10332917;28;20092;-68
2022/06/30 16:09:35;;;;;;;8.60;7.53;;;;;;;29.39;100.00;100915.41;10346106;28;20150;-68
2022/06/30 16:14:36;;;;;;;8.70;6.50;;;;;;;30.22;100.00;100894.59;10348358;28;20037;-68
2022/06/30 16:19:36;;;;;;;8.32;5.35;;;;;;;30.76;99.53;100896.00;10340879;28;20035;-68
2022/06/30 16:24:36;;;;;;;10.52;5.72;;;;;;;30.62;100.00;100907.25;10315272;28;20446;-68
2022/06/30 16:29:37;;;;;;;6.13;4.88;;;;;;;29.83;99.55;100895.00;10332227;28;20039;-68
2022/06/30 16:34:37;;;;;;;6.97;5.30;;;;;;;28.66;100.00;100898.41;10371497;28;20034;-68
2022/06/30 16:39:38;;;;;;;8.65;5.40;;;;;;;27.86;100.00;100885.91;10357115;28;20085;-68
2022/06/30 16:44:39;;;;;;;9.90;5.80;;;;;;;26.97;100.00;100891.13;10329479;28;20120;-67
2022/06/30 16:49:39;;;;;;;12.15;10.18;;;;;;;26.18;100.00;100877.75;10299629;28;20050;-67
2022/06/30 16:54:40;;;;;;;9.32;6.65;;;;;;;26.07;100.00;100871.81;10332575;28;20035;-68
2022/06/30 16:59:40;;;;;;;9.32;7.18;;;;;;;25.73;100.00;100868.38;10344495;28;20042;-68
2022/06/30 17:04:41;;;;;;;9.93;7.85;;;;;;;25.34;100.00;100867.22;10331236;28;20030;-67
2022/06/30 17:09:41;;;;;;;10.60;9.05;;;;;;;25.02;100.00;100869.00;10344892;28;20111;-67
2022/06/30 17:14:41;;;;;;;11.85;9.55;;;;;;;24.74;100.00;100862.06;10330249;28;20034;-68
2022/06/30 17:19:42;;;;;;;9.90;8.68;;;;;;;24.67;100.00;100847.75;10326332;28;20072;-66
2022/06/30 17:24:43;;;;;;;10.43;9.43;;;;;;;24.52;100.00;100828.75;10337359;28;20042;-67
2022/06/30 17:29:43;;;;;;;10.05;8.40;;;;;;;24.37;100.00;100831.03;10341289;28;20483;-66
2022/06/30 17:34:44;;;;;;;9.65;8.35;;;;;;;24.19;100.00;100828.78;10311031;28;20065;-67
2022/06/30 17:39:44;;;;;;;13.85;8.35;;;;;;;24.16;100.00;100824.66;10328200;28;20502;-67
2022/06/30 17:44:45;;;;;;;8.68;7.80;;;;;;;24.13;100.00;100825.38;10343630;28;20529;-66
2022/06/30 17:49:45;;;;;;;10.73;9.73;;;;;;;24.10;100.00;100837.28;10327361;28;20037;-67
2022/06/30 17:54:46;;;;;;;7.68;6.28;;;;;;;23.90;100.00;100828.56;10370346;28;20398;-66
2022/06/30 17:59:47;;;;;;;8.18;6.10;;;;;;;23.80;100.00;100823.38;10345954;28;20556;-67
2022/06/30 18:04:47;;;;;;;8.27;6.93;;;;;;;23.91;100.00;100807.72;10352690;28;20045;-66
2022/06/30 18:15:07;;;;;;;21.40;17.52;;;;;;;23.42;100.00;100789.81;10361590;28;20042;-66
2022/06/30 18:20:08;;;;;;;25.35;19.40;;;;;;;23.30;100.00;100799.00;10319964;28;20510;-66
2022/06/30 18:25:08;;;;;;;23.20;17.77;;;;;;;23.12;100.00;100793.50;10341956;28;20034;-66
2022/06/30 18:30:21;;;;;;;20.67;18.33;;;;;;;23.05;100.00;100793.25;10455383;28;20445;-68
2022/06/30 18:35:22;;;;;;;25.50;19.13;;;;;;;22.89;100.00;100823.03;10444337;28;20044;-67
2022/06/30 18:40:25;;;;;;;23.10;20.67;;;;;;;22.79;100.00;100809.41;10444338;28;20041;-68
2022/06/30 18:45:26;;;;;;;27.40;22.65;;;;;;;22.65;100.00;100824.47;10475421;28;20049;-68
2022/06/30 18:50:27;;;;;;;29.77;23.02;;;;;;;22.44;100.00;100846.84;10441790;28;20029;-67
2022/06/30 18:55:27;;;;;;;29.92;26.00;;;;;;;22.26;100.00;100834.88;10475391;28;20307;-67
2022/06/30 19:00:28;;;;;;;32.85;24.05;;;;;;;22.09;100.00;100830.09;10444557;28;20040;-66
2022/06/30 19:05:28;;;;;;;25.55;22.42;;;;;;;21.87;100.00;100835.91;10442712;28;20029;-67
2022/06/30 19:10:29;;;;;;;29.80;23.92;;;;;;;21.71;100.00;100830.00;10443059;28;20029;-68
2022/06/30 19:15:29;;;;;;;27.08;22.88;;;;;;;21.46;100.00;100857.69;10442001;28;20033;-66
2022/06/30 19:20:30;;;;;;;32.08;24.90;;;;;;;21.38;100.00;100872.47;10442023;28;20045;-68
2022/06/30 19:25:30;;;;;;;32.25;24.98;;;;;;;21.21;100.00;100859.28;10442402;28;20045;-67
2022/06/30 19:30:31;;;;;;;34.05;29.15;;;;;;;20.96;100.00;100872.06;10440740;28;20045;-68
2022/06/30 19:35:31;;;;;;;39.13;32.40;;;;;;;20.64;100.00;100910.44;10442522;28;20542;-69
2022/06/30 19:40:35;;;;;;;41.10;32.00;;;;;;;20.32;100.00;100876.03;10420386;28;20038;-68
2022/06/30 19:45:35;;;;;;;39.70;33.63;;;;;;;20.09;100.00;100866.84;10412731;28;20397;-68
2022/06/30 19:50:36;;;;;;;44.00;34.25;;;;;;;19.80;100.00;100855.28;10413521;28;20033;-67
2022/06/30 19:55:36;;;;;;;42.17;32.83;;;;;;;19.46;100.00;100871.41;10414426;28;20037;-67
2022/06/30 20:00:36;;;;;;;37.75;31.45;;;;;;;19.21;100.00;100897.13;10413017;28;20025;-67
2022/06/30 20:05:37;;;;;;;36.97;30.23;;;;;;;19.24;100.00;100929.97;10444565;28;20041;-67
2022/06/30 20:15:59;;;;;;;30.65;25.67;;;;;;;18.90;100.00;100993.41;10400017;28;20453;-65
2022/06/30 20:21:00;;;;;;;39.30;13.82;;;;;;;18.68;100.00;101206.00;10384530;28;20041;-65
2022/06/30 20:26:01;;;;;;;26.80;9.40;;;;;;;17.91;100.00;101114.25;10386704;28;20253;-65
2022/06/30 20:31:01;;;;;;;16.38;10.10;;;;;;;17.48;100.00;101048.19;10361097;28;20038;-68
2022/06/30 20:36:02;;;;;;;33.70;18.75;;;;;;;17.46;100.00;101075.47;10352153;28;20065;-69
2022/06/30 20:41:03;;;;;;;33.63;17.33;;;;;;;17.40;100.00;101104.50;10394165;28;20034;-69
2022/06/30 20:46:03;;;;;;;27.02;16.67;;;;;;;17.23;100.00;101101.34;10421824;28;20167;-67
2022/06/30 20:56:23;;;;;;;73.30;18.75;;;;;;;17.18;100.00;101088.31;10408796;28;20497;-68
2022/06/30 21:01:23;;;;;;;22.77;11.25;;;;;;;17.08;100.00;101083.69;10406870;28;20046;-68
2022/06/30 21:06:24;;;;;;;18.38;10.63;;;;;;;17.00;100.00;101077.94;10407309;28;20037;-67
2022/06/30 21:11:25;;;;;;;19.58;6.55;;;;;;;16.88;100.00;101078.31;10422845;28;20054;-68
2022/06/30 21:16:25;;;;;;;12.25;4.75;;;;;;;16.82;100.00;101102.53;10363915;28;20040;-68
2022/06/30 21:21:26;;;;;;;5.38;3.47;;;;;;;16.62;100.00;101081.28;10367527;28;20098;-66
2022/06/30 21:26:26;;;;;;;4.97;3.67;;;;;;;16.57;100.00;101099.94;10367269;28;20409;-67
2022/06/30 21:31:27;;;;;;;8.43;5.18;;;;;;;16.45;100.00;101094.75;10365666;28;20038;-66
2022/06/30 21:36:28;;;;;;;13.38;7.00;;;;;;;16.31;100.00;101087.06;10361926;28;20145;-67
2022/06/30 21:41:28;;;;;;;14.77;7.93;;;;;;;16.25;100.00;101082.66;10346750;28;20052;-66
2022/06/30 21:46:29;;;;;;;13.38;7.40;;;;;;;16.17;100.00;101061.03;10408179;28;20541;-66
2022/06/30 21:51:30;;;;;;;12.98;5.10;;;;;;;16.05;100.00;101057.78;10439289;28;20485;-67
2022/06/30 21:56:31;;;;;;;10.80;4.70;;;;;;;15.90;100.00;101048.41;10408597;28;20072;-67
2022/06/30 22:01:32;;;;;;;12.95;3.97;;;;;;;15.87;100.00;101053.69;10407705;28;20056;-66
2022/06/30 22:06:33;;;;;;;7.93;3.75;;;;;;;15.80;100.00;101042.09;10405940;28;20509;-67
2022/06/30 22:11:33;;;;;;;6.68;3.30;;;;;;;15.76;100.00;101027.94;10437952;28;20042;-66
2022/06/30 22:16:34;;;;;;;9.43;3.63;;;;;;;15.73;100.00;101009.94;10406978;28;20057;-67
2022/06/30 22:21:34;;;;;;;7.63;3.80;;;;;;;15.67;100.00;101036.00;10422722;28;20107;-67
2022/06/30 22:26:35;;;;;;;16.88;4.93;;;;;;;15.61;100.00;101052.97;10389632;28;20052;-67
2022/06/30 22:31:35;;;;;;;12.85;4.55;;;;;;;15.58;100.00;101059.91;10365727;28;20044;-67
2022/06/30 22:36:38;;;;;;;16.17;5.47;;;;;;;15.57;100.00;101094.34;10374257;28;20030;-67
2022/06/30 22:41:38;;;;;;;18.17;6.05;;;;;;;15.51;100.00;101118.47;10365472;28;20053;-68
2022/06/30 22:46:39;;;;;;;12.35;4.18;;;;;;;15.43;100.00;101113.50;10380044;28;20066;-68
2022/06/30 22:51:39;;;;;;;16.98;5.03;;;;;;;15.49;100.00;101137.34;10396867;28;20038;-68
2022/06/30 22:56:40;;;;;;;17.30;5.38;;;;;;;15.52;100.00;101159.00;10397125;28;20587;-68
2022/06/30 23:01:41;;;;;;;25.95;4.95;;;;;;;15.52;100.00;101177.56;10322662;28;20034;-67
2022/06/30 23:06:42;;;;;;;16.90;5.03;;;;;;;15.42;100.00;101197.00;10355864;28;20046;-67
2022/06/30 23:11:42;;;;;;;12.13;4.13;;;;;;;15.14;100.00;101213.94;10364277;28;20046;-69
2022/06/30 23:16:42;;;;;;;12.25;3.85;;;;;;;15.04;100.00;101208.41;10371076;28;20037;-68